sensor_id;sensor_type;location;lat;lon;timestamp;temperature;humidity
871;DHT22;422;51.280;7.236;2022-09-20T00:01:17;8.30;99.90
871;DHT22;422;51.280;7.236;2022-09-20T00:03:48;8.40;99.90
871;DHT22;422;51.280;7.236;2022-09-20T00:06:18;8.40;99.90
871;DHT22;422;51.280;7.236;2022-09-20T00:08:46;8.50;99.90
871;DHT22;422;51.280;7.236;2022-09-20T00:11:15;8.50;99.90
871;DHT22;422;51.280;7.236;2022-09-20T00:13:44;8.50;99.90
871;DHT22;422;51.280;7.236;2022-09-20T00:16:19;8.60;99.90
871;DHT22;422;51.280;7.236;2022-09-20T00:18:47;8.60;99.90
871;DHT22;422;51.280;7.236;2022-09-20T00:21:16;8.60;99.90
871;DHT22;422;51.280;7.236;2022-09-20T00:23:44;8.70;99.90
871;DHT22;422;51.280;7.236;2022-09-20T00:26:11;8.70;99.90
871;DHT22;422;51.280;7.236;2022-09-20T00:28:39;8.70;99.90
871;DHT22;422;51.280;7.236;2022-09-20T00:31:10;8.70;99.90
871;DHT22;422;51.280;7.236;2022-09-20T00:33:42;8.70;99.90
871;DHT22;422;51.280;7.236;2022-09-20T00:36:28;8.70;99.90
871;DHT22;422;51.280;7.236;2022-09-20T00:38:56;8.60;99.90
871;DHT22;422;51.280;7.236;2022-09-20T00:41:24;8.50;99.90
871;DHT22;422;51.280;7.236;2022-09-20T00:43:54;8.40;99.90
871;DHT22;422;51.280;7.236;2022-09-20T00:46:25;8.40;99.90
871;DHT22;422;51.280;7.236;2022-09-20T00:49:02;8.40;99.90
871;DHT22;422;51.280;7.236;2022-09-20T00:51:34;8.30;99.90
871;DHT22;422;51.280;7.236;2022-09-20T00:54:07;8.20;99.90
871;DHT22;422;51.280;7.236;2022-09-20T00:56:37;8.10;99.90
871;DHT22;422;51.280;7.236;2022-09-20T00:59:11;8.00;99.90
871;DHT22;422;51.280;7.236;2022-09-20T01:01:41;8.10;99.90
871;DHT22;422;51.280;7.236;2022-09-20T01:04:13;8.00;99.90
871;DHT22;422;51.280;7.236;2022-09-20T01:06:44;8.00;99.90
871;DHT22;422;51.280;7.236;2022-09-20T01:09:14;7.90;99.90
871;DHT22;422;51.280;7.236;2022-09-20T01:11:42;7.90;99.90
871;DHT22;422;51.280;7.236;2022-09-20T01:14:11;7.80;99.90
871;DHT22;422;51.280;7.236;2022-09-20T01:16:39;7.80;99.90
871;DHT22;422;51.280;7.236;2022-09-20T01:19:14;7.80;99.90
871;DHT22;422;51.280;7.236;2022-09-20T01:21:42;7.70;99.90
871;DHT22;422;51.280;7.236;2022-09-20T01:24:16;7.70;99.90
871;DHT22;422;51.280;7.236;2022-09-20T01:27:02;7.60;99.90
871;DHT22;422;51.280;7.236;2022-09-20T01:29:44;7.60;99.90
871;DHT22;422;51.280;7.236;2022-09-20T01:32:20;7.60;99.90
871;DHT22;422;51.280;7.236;2022-09-20T01:34:53;7.60;99.90
871;DHT22;422;51.280;7.236;2022-09-20T01:37:31;7.60;99.90
871;DHT22;422;51.280;7.236;2022-09-20T01:40:08;7.50;99.90
871;DHT22;422;51.280;7.236;2022-09-20T01:42:49;7.50;99.90
871;DHT22;422;51.280;7.236;2022-09-20T01:45:24;7.40;99.90
871;DHT22;422;51.280;7.236;2022-09-20T01:47:58;7.50;99.90
871;DHT22;422;51.280;7.236;2022-09-20T01:50:34;7.50;99.90
871;DHT22;422;51.280;7.236;2022-09-20T01:53:38;7.50;99.90
871;DHT22;422;51.280;7.236;2022-09-20T01:56:44;7.50;99.90
871;DHT22;422;51.280;7.236;2022-09-20T01:59:32;7.40;99.90
871;DHT22;422;51.280;7.236;2022-09-20T02:02:31;7.40;99.90
871;DHT22;422;51.280;7.236;2022-09-20T02:05:30;7.40;99.90
871;DHT22;422;51.280;7.236;2022-09-20T02:08:28;7.40;99.90
871;DHT22;422;51.280;7.236;2022-09-20T02:11:11;7.30;99.90
871;DHT22;422;51.280;7.236;2022-09-20T02:14:03;7.20;99.90
871;DHT22;422;51.280;7.236;2022-09-20T02:16:47;7.10;99.90
871;DHT22;422;51.280;7.236;2022-09-20T02:19:33;7.20;99.90
871;DHT22;422;51.280;7.236;2022-09-20T02:22:21;7.20;99.90
871;DHT22;422;51.280;7.236;2022-09-20T02:24:58;7.20;99.90
871;DHT22;422;51.280;7.236;2022-09-20T02:27:38;7.10;99.90
871;DHT22;422;51.280;7.236;2022-09-20T02:30:14;7.10;99.90
871;DHT22;422;51.280;7.236;2022-09-20T02:33:06;7.00;99.90
871;DHT22;422;51.280;7.236;2022-09-20T02:35:48;7.00;99.90
871;DHT22;422;51.280;7.236;2022-09-20T02:38:40;7.10;99.90
871;DHT22;422;51.280;7.236;2022-09-20T02:41:46;7.10;99.90
871;DHT22;422;51.280;7.236;2022-09-20T02:44:25;7.10;99.90
871;DHT22;422;51.280;7.236;2022-09-20T02:47:04;7.10;99.90
871;DHT22;422;51.280;7.236;2022-09-20T02:49:41;7.10;99.90
871;DHT22;422;51.280;7.236;2022-09-20T02:52:15;7.10;99.90
871;DHT22;422;51.280;7.236;2022-09-20T02:54:53;7.10;99.90
871;DHT22;422;51.280;7.236;2022-09-20T02:57:35;7.10;99.90
871;DHT22;422;51.280;7.236;2022-09-20T03:00:05;7.00;99.90
871;DHT22;422;51.280;7.236;2022-09-20T03:02:43;7.00;99.90
871;DHT22;422;51.280;7.236;2022-09-20T03:05:22;6.90;99.90
871;DHT22;422;51.280;7.236;2022-09-20T03:08:05;6.80;99.90
871;DHT22;422;51.280;7.236;2022-09-20T03:10:43;6.80;99.90
871;DHT22;422;51.280;7.236;2022-09-20T03:13:23;6.70;99.90
871;DHT22;422;51.280;7.236;2022-09-20T03:16:01;6.80;99.90
871;DHT22;422;51.280;7.236;2022-09-20T03:18:42;6.80;99.90
871;DHT22;422;51.280;7.236;2022-09-20T03:21:24;6.70;99.90
871;DHT22;422;51.280;7.236;2022-09-20T03:24:01;6.60;99.90
871;DHT22;422;51.280;7.236;2022-09-20T03:26:36;6.50;99.90
871;DHT22;422;51.280;7.236;2022-09-20T03:29:22;6.50;99.90
871;DHT22;422;51.280;7.236;2022-09-20T03:32:05;6.40;99.90
871;DHT22;422;51.280;7.236;2022-09-20T03:34:44;6.50;99.90
871;DHT22;422;51.280;7.236;2022-09-20T03:37:35;6.40;99.90
871;DHT22;422;51.280;7.236;2022-09-20T03:43:18;6.40;99.90
871;DHT22;422;51.280;7.236;2022-09-20T03:45:59;6.40;99.90
871;DHT22;422;51.280;7.236;2022-09-20T03:51:59;6.50;99.90
871;DHT22;422;51.280;7.236;2022-09-20T03:54:53;6.40;99.90
871;DHT22;422;51.280;7.236;2022-09-20T03:57:58;6.50;99.90
871;DHT22;422;51.280;7.236;2022-09-20T04:00:37;6.50;99.90
871;DHT22;422;51.280;7.236;2022-09-20T04:03:25;6.50;99.90
871;DHT22;422;51.280;7.236;2022-09-20T04:06:10;6.50;99.90
871;DHT22;422;51.280;7.236;2022-09-20T04:08:57;6.50;99.90
871;DHT22;422;51.280;7.236;2022-09-20T04:11:33;6.60;99.90
871;DHT22;422;51.280;7.236;2022-09-20T04:14:15;6.60;99.90
871;DHT22;422;51.280;7.236;2022-09-20T04:16:48;6.70;99.90
871;DHT22;422;51.280;7.236;2022-09-20T04:19:23;6.70;99.90
871;DHT22;422;51.280;7.236;2022-09-20T04:21:55;6.70;99.90
871;DHT22;422;51.280;7.236;2022-09-20T04:24:30;6.70;99.90
871;DHT22;422;51.280;7.236;2022-09-20T04:27:07;6.70;99.90
871;DHT22;422;51.280;7.236;2022-09-20T04:29:42;6.70;99.90
871;DHT22;422;51.280;7.236;2022-09-20T04:32:14;6.70;99.90
871;DHT22;422;51.280;7.236;2022-09-20T04:34:47;6.80;99.90
871;DHT22;422;51.280;7.236;2022-09-20T04:37:35;6.80;99.90
871;DHT22;422;51.280;7.236;2022-09-20T04:40:12;6.80;99.90
871;DHT22;422;51.280;7.236;2022-09-20T04:46:04;6.90;99.90
871;DHT22;422;51.280;7.236;2022-09-20T04:49:11;7.00;99.90
871;DHT22;422;51.280;7.236;2022-09-20T05:07:51;7.30;99.90
871;DHT22;422;51.280;7.236;2022-09-20T05:11:00;7.30;99.90
871;DHT22;422;51.280;7.236;2022-09-20T05:13:38;7.40;99.90
871;DHT22;422;51.280;7.236;2022-09-20T05:16:20;7.40;99.90
871;DHT22;422;51.280;7.236;2022-09-20T05:19:04;7.40;99.90
871;DHT22;422;51.280;7.236;2022-09-20T05:21:56;7.40;99.90
871;DHT22;422;51.280;7.236;2022-09-20T05:27:41;7.50;99.90
871;DHT22;422;51.280;7.236;2022-09-20T05:30:20;7.50;99.90
871;DHT22;422;51.280;7.236;2022-09-20T05:32:54;7.60;99.90
871;DHT22;422;51.280;7.236;2022-09-20T05:35:32;7.60;99.90
871;DHT22;422;51.280;7.236;2022-09-20T05:38:10;7.70;99.90
871;DHT22;422;51.280;7.236;2022-09-20T05:40:52;7.80;99.90
871;DHT22;422;51.280;7.236;2022-09-20T05:43:30;7.80;99.90
871;DHT22;422;51.280;7.236;2022-09-20T05:46:09;7.80;99.90
871;DHT22;422;51.280;7.236;2022-09-20T05:48:45;7.90;99.90
871;DHT22;422;51.280;7.236;2022-09-20T05:51:40;8.10;99.90
871;DHT22;422;51.280;7.236;2022-09-20T05:54:45;8.10;99.90
871;DHT22;422;51.280;7.236;2022-09-20T05:57:27;8.20;99.90
871;DHT22;422;51.280;7.236;2022-09-20T06:00:03;8.30;99.90
871;DHT22;422;51.280;7.236;2022-09-20T06:02:38;8.40;99.90
871;DHT22;422;51.280;7.236;2022-09-20T06:05:12;8.50;99.90
871;DHT22;422;51.280;7.236;2022-09-20T06:08:06;8.60;99.90
871;DHT22;422;51.280;7.236;2022-09-20T06:10:58;8.70;99.90
871;DHT22;422;51.280;7.236;2022-09-20T06:13:44;8.80;99.90
871;DHT22;422;51.280;7.236;2022-09-20T06:16:20;8.90;99.90
871;DHT22;422;51.280;7.236;2022-09-20T06:19:00;9.00;99.90
871;DHT22;422;51.280;7.236;2022-09-20T06:21:45;9.10;99.90
871;DHT22;422;51.280;7.236;2022-09-20T06:24:25;9.10;99.90
871;DHT22;422;51.280;7.236;2022-09-20T06:26:55;9.20;99.90
871;DHT22;422;51.280;7.236;2022-09-20T06:29:29;9.30;99.90
871;DHT22;422;51.280;7.236;2022-09-20T06:32:00;9.40;99.90
871;DHT22;422;51.280;7.236;2022-09-20T06:34:30;9.50;99.90
871;DHT22;422;51.280;7.236;2022-09-20T06:37:08;9.60;99.90
871;DHT22;422;51.280;7.236;2022-09-20T06:40:00;9.70;99.90
871;DHT22;422;51.280;7.236;2022-09-20T06:42:46;9.80;99.90
871;DHT22;422;51.280;7.236;2022-09-20T06:45:19;9.90;99.90
871;DHT22;422;51.280;7.236;2022-09-20T06:47:46;10.00;99.90
871;DHT22;422;51.280;7.236;2022-09-20T06:50:14;10.20;99.90
871;DHT22;422;51.280;7.236;2022-09-20T06:52:42;10.30;99.90
871;DHT22;422;51.280;7.236;2022-09-20T06:55:17;10.20;99.90
871;DHT22;422;51.280;7.236;2022-09-20T06:57:46;10.40;99.90
871;DHT22;422;51.280;7.236;2022-09-20T07:00:15;10.40;99.90
871;DHT22;422;51.280;7.236;2022-09-20T07:02:42;10.60;99.90
871;DHT22;422;51.280;7.236;2022-09-20T07:05:15;10.80;99.90
871;DHT22;422;51.280;7.236;2022-09-20T07:07:46;11.00;99.90
871;DHT22;422;51.280;7.236;2022-09-20T07:10:15;11.00;99.90
871;DHT22;422;51.280;7.236;2022-09-20T07:12:42;11.10;99.90
871;DHT22;422;51.280;7.236;2022-09-20T07:15:10;11.30;99.90
871;DHT22;422;51.280;7.236;2022-09-20T07:17:43;11.80;99.90
871;DHT22;422;51.280;7.236;2022-09-20T07:20:10;12.10;99.90
871;DHT22;422;51.280;7.236;2022-09-20T07:22:38;12.30;99.90
871;DHT22;422;51.280;7.236;2022-09-20T07:25:07;12.70;99.90
871;DHT22;422;51.280;7.236;2022-09-20T07:27:36;13.00;99.90
871;DHT22;422;51.280;7.236;2022-09-20T07:30:06;13.70;99.90
871;DHT22;422;51.280;7.236;2022-09-20T07:32:34;13.80;99.90
871;DHT22;422;51.280;7.236;2022-09-20T07:35:01;13.60;99.90
871;DHT22;422;51.280;7.236;2022-09-20T07:37:28;13.50;48.80
871;DHT22;422;51.280;7.236;2022-09-20T07:39:55;13.50;1.00
871;DHT22;422;51.280;7.236;2022-09-20T07:42:23;13.20;99.90
871;DHT22;422;51.280;7.236;2022-09-20T07:44:55;12.90;99.90
871;DHT22;422;51.280;7.236;2022-09-20T07:47:25;12.80;1.00
871;DHT22;422;51.280;7.236;2022-09-20T07:49:52;12.50;1.00
871;DHT22;422;51.280;7.236;2022-09-20T07:52:20;12.50;99.90
871;DHT22;422;51.280;7.236;2022-09-20T07:54:47;12.40;1.00
871;DHT22;422;51.280;7.236;2022-09-20T07:57:14;12.30;89.30
871;DHT22;422;51.280;7.236;2022-09-20T07:59:42;12.40;1.00
871;DHT22;422;51.280;7.236;2022-09-20T08:02:15;12.30;99.90
871;DHT22;422;51.280;7.236;2022-09-20T08:04:43;12.30;1.00
871;DHT22;422;51.280;7.236;2022-09-20T08:07:10;12.50;99.90
871;DHT22;422;51.280;7.236;2022-09-20T08:09:38;12.40;99.90
871;DHT22;422;51.280;7.236;2022-09-20T08:12:08;12.30;99.90
871;DHT22;422;51.280;7.236;2022-09-20T08:14:35;12.70;99.90
871;DHT22;422;51.280;7.236;2022-09-20T08:17:02;13.40;99.90
871;DHT22;422;51.280;7.236;2022-09-20T08:19:31;13.50;99.90
871;DHT22;422;51.280;7.236;2022-09-20T08:21:58;13.10;1.00
871;DHT22;422;51.280;7.236;2022-09-20T08:24:28;12.80;1.00
871;DHT22;422;51.280;7.236;2022-09-20T08:26:55;12.70;1.00
871;DHT22;422;51.280;7.236;2022-09-20T08:29:23;13.20;99.90
871;DHT22;422;51.280;7.236;2022-09-20T08:31:50;13.90;97.70
871;DHT22;422;51.280;7.236;2022-09-20T08:34:17;14.20;1.00
871;DHT22;422;51.280;7.236;2022-09-20T08:36:47;14.30;1.00
871;DHT22;422;51.280;7.236;2022-09-20T08:39:19;14.20;1.00
871;DHT22;422;51.280;7.236;2022-09-20T08:41:49;14.60;1.00
871;DHT22;422;51.280;7.236;2022-09-20T08:44:23;14.50;1.00
871;DHT22;422;51.280;7.236;2022-09-20T08:47:02;14.50;1.00
871;DHT22;422;51.280;7.236;2022-09-20T08:49:31;14.40;1.00
871;DHT22;422;51.280;7.236;2022-09-20T08:52:02;14.20;1.00
871;DHT22;422;51.280;7.236;2022-09-20T08:54:31;14.30;1.00
871;DHT22;422;51.280;7.236;2022-09-20T08:57:02;14.20;1.00
871;DHT22;422;51.280;7.236;2022-09-20T08:59:32;14.00;1.00
871;DHT22;422;51.280;7.236;2022-09-20T09:01:59;14.10;1.00
871;DHT22;422;51.280;7.236;2022-09-20T09:04:34;14.20;1.00
871;DHT22;422;51.280;7.236;2022-09-20T09:07:03;14.00;1.00
871;DHT22;422;51.280;7.236;2022-09-20T09:09:38;14.30;1.00
871;DHT22;422;51.280;7.236;2022-09-20T09:12:16;14.90;1.00
871;DHT22;422;51.280;7.236;2022-09-20T09:14:45;15.10;1.00
871;DHT22;422;51.280;7.236;2022-09-20T09:17:19;14.50;99.90
871;DHT22;422;51.280;7.236;2022-09-20T09:19:48;14.30;99.90
871;DHT22;422;51.280;7.236;2022-09-20T09:22:22;14.40;99.90
871;DHT22;422;51.280;7.236;2022-09-20T09:25:11;14.30;99.90
871;DHT22;422;51.280;7.236;2022-09-20T09:27:53;14.80;1.00
871;DHT22;422;51.280;7.236;2022-09-20T09:30:23;15.10;99.90
871;DHT22;422;51.280;7.236;2022-09-20T09:32:51;14.70;99.90
871;DHT22;422;51.280;7.236;2022-09-20T09:35:26;14.60;99.90
871;DHT22;422;51.280;7.236;2022-09-20T09:37:57;14.40;99.90
871;DHT22;422;51.280;7.236;2022-09-20T09:40:27;14.40;99.90
871;DHT22;422;51.280;7.236;2022-09-20T09:42:58;14.00;99.90
871;DHT22;422;51.280;7.236;2022-09-20T09:45:33;13.90;99.90
871;DHT22;422;51.280;7.236;2022-09-20T09:48:01;14.30;99.90
871;DHT22;422;51.280;7.236;2022-09-20T09:50:32;14.20;99.90
871;DHT22;422;51.280;7.236;2022-09-20T09:53:07;14.30;99.90
871;DHT22;422;51.280;7.236;2022-09-20T09:58:46;14.20;99.90
871;DHT22;422;51.280;7.236;2022-09-20T10:01:30;13.90;1.00
871;DHT22;422;51.280;7.236;2022-09-20T10:04:11;13.60;1.00
871;DHT22;422;51.280;7.236;2022-09-20T10:06:44;13.50;1.00
871;DHT22;422;51.280;7.236;2022-09-20T10:09:29;13.60;1.00
871;DHT22;422;51.280;7.236;2022-09-20T10:12:13;13.50;1.00
871;DHT22;422;51.280;7.236;2022-09-20T10:14:56;13.90;1.00
871;DHT22;422;51.280;7.236;2022-09-20T10:17:43;14.60;1.00
871;DHT22;422;51.280;7.236;2022-09-20T10:20:26;15.30;1.00
871;DHT22;422;51.280;7.236;2022-09-20T10:23:07;16.00;99.90
871;DHT22;422;51.280;7.236;2022-09-20T10:25:43;16.60;99.90
871;DHT22;422;51.280;7.236;2022-09-20T10:28:27;16.50;99.90
871;DHT22;422;51.280;7.236;2022-09-20T10:31:05;17.00;99.90
871;DHT22;422;51.280;7.236;2022-09-20T10:33:43;16.60;99.90
871;DHT22;422;51.280;7.236;2022-09-20T10:36:20;15.70;99.90
871;DHT22;422;51.280;7.236;2022-09-20T10:38:55;14.90;99.90
871;DHT22;422;51.280;7.236;2022-09-20T10:41:35;14.20;99.90
871;DHT22;422;51.280;7.236;2022-09-20T10:44:56;13.90;99.90
871;DHT22;422;51.280;7.236;2022-09-20T10:47:33;14.00;99.90
871;DHT22;422;51.280;7.236;2022-09-20T10:50:16;14.70;1.00
871;DHT22;422;51.280;7.236;2022-09-20T10:56:02;15.60;99.90
871;DHT22;422;51.280;7.236;2022-09-20T10:58:50;15.40;99.90
871;DHT22;422;51.280;7.236;2022-09-20T11:01:28;14.90;99.90
871;DHT22;422;51.280;7.236;2022-09-20T11:04:12;14.60;99.90
871;DHT22;422;51.280;7.236;2022-09-20T11:06:49;14.00;99.90
871;DHT22;422;51.280;7.236;2022-09-20T11:09:23;13.70;1.00
871;DHT22;422;51.280;7.236;2022-09-20T11:11:53;13.80;1.00
871;DHT22;422;51.280;7.236;2022-09-20T11:14:28;14.00;1.00
871;DHT22;422;51.280;7.236;2022-09-20T11:17:06;14.10;1.00
871;DHT22;422;51.280;7.236;2022-09-20T11:19:43;14.30;1.00
871;DHT22;422;51.280;7.236;2022-09-20T11:22:17;14.00;1.00
871;DHT22;422;51.280;7.236;2022-09-20T11:24:57;14.00;99.90
871;DHT22;422;51.280;7.236;2022-09-20T11:27:30;14.00;99.90
871;DHT22;422;51.280;7.236;2022-09-20T11:30:03;14.10;99.90
871;DHT22;422;51.280;7.236;2022-09-20T11:32:34;14.30;99.90
871;DHT22;422;51.280;7.236;2022-09-20T11:35:16;14.40;99.90
871;DHT22;422;51.280;7.236;2022-09-20T11:37:52;14.50;99.90
871;DHT22;422;51.280;7.236;2022-09-20T11:40:33;14.20;99.90
871;DHT22;422;51.280;7.236;2022-09-20T11:43:04;14.70;1.00
871;DHT22;422;51.280;7.236;2022-09-20T11:45:34;14.80;99.90
871;DHT22;422;51.280;7.236;2022-09-20T11:48:09;15.00;99.90
871;DHT22;422;51.280;7.236;2022-09-20T11:50:51;15.50;1.00
871;DHT22;422;51.280;7.236;2022-09-20T11:53:32;16.80;1.00
871;DHT22;422;51.280;7.236;2022-09-20T11:56:06;17.90;99.90
871;DHT22;422;51.280;7.236;2022-09-20T11:58:44;17.70;99.90
871;DHT22;422;51.280;7.236;2022-09-20T12:01:16;17.70;99.90
871;DHT22;422;51.280;7.236;2022-09-20T12:03:53;18.20;99.90
871;DHT22;422;51.280;7.236;2022-09-20T12:06:26;17.70;99.90
871;DHT22;422;51.280;7.236;2022-09-20T12:08:56;18.10;99.90
871;DHT22;422;51.280;7.236;2022-09-20T12:11:28;18.30;99.90
871;DHT22;422;51.280;7.236;2022-09-20T12:14:01;18.20;99.90
871;DHT22;422;51.280;7.236;2022-09-20T12:16:39;18.50;99.90
871;DHT22;422;51.280;7.236;2022-09-20T12:19:10;18.00;99.90
871;DHT22;422;51.280;7.236;2022-09-20T12:25:37;17.80;99.90
871;DHT22;422;51.280;7.236;2022-09-20T12:28:13;17.40;99.90
871;DHT22;422;51.280;7.236;2022-09-20T12:30:41;17.20;99.90
871;DHT22;422;51.280;7.236;2022-09-20T12:33:19;17.60;99.90
871;DHT22;422;51.280;7.236;2022-09-20T12:35:59;17.90;99.90
871;DHT22;422;51.280;7.236;2022-09-20T12:39:00;18.10;99.90
871;DHT22;422;51.280;7.236;2022-09-20T12:41:45;18.00;99.90
871;DHT22;422;51.280;7.236;2022-09-20T12:44:31;17.70;99.90
871;DHT22;422;51.280;7.236;2022-09-20T12:47:00;17.30;99.90
871;DHT22;422;51.280;7.236;2022-09-20T12:49:41;17.40;99.90
871;DHT22;422;51.280;7.236;2022-09-20T12:52:34;17.50;99.90
871;DHT22;422;51.280;7.236;2022-09-20T12:55:34;16.90;99.90
871;DHT22;422;51.280;7.236;2022-09-20T12:58:16;18.10;99.90
871;DHT22;422;51.280;7.236;2022-09-20T13:00:49;18.70;99.90
871;DHT22;422;51.280;7.236;2022-09-20T13:03:26;19.10;99.90
871;DHT22;422;51.280;7.236;2022-09-20T13:06:26;18.90;99.90
871;DHT22;422;51.280;7.236;2022-09-20T13:09:02;18.60;99.90
871;DHT22;422;51.280;7.236;2022-09-20T13:11:37;17.90;99.90
871;DHT22;422;51.280;7.236;2022-09-20T13:14:10;17.00;99.90
871;DHT22;422;51.280;7.236;2022-09-20T13:16:49;16.90;99.90
871;DHT22;422;51.280;7.236;2022-09-20T13:19:19;16.40;99.90
871;DHT22;422;51.280;7.236;2022-09-20T13:21:52;15.90;99.90
871;DHT22;422;51.280;7.236;2022-09-20T13:24:23;15.90;99.90
871;DHT22;422;51.280;7.236;2022-09-20T13:26:53;15.70;99.90
871;DHT22;422;51.280;7.236;2022-09-20T13:29:31;16.10;99.90
871;DHT22;422;51.280;7.236;2022-09-20T13:32:15;16.30;99.90
871;DHT22;422;51.280;7.236;2022-09-20T13:34:45;16.50;99.90
871;DHT22;422;51.280;7.236;2022-09-20T13:37:17;16.20;99.90
871;DHT22;422;51.280;7.236;2022-09-20T13:39:52;16.30;99.90
871;DHT22;422;51.280;7.236;2022-09-20T13:42:22;16.60;99.90
871;DHT22;422;51.280;7.236;2022-09-20T13:44:49;16.90;99.90
871;DHT22;422;51.280;7.236;2022-09-20T13:47:25;17.00;99.90
871;DHT22;422;51.280;7.236;2022-09-20T13:49:59;17.10;99.90
871;DHT22;422;51.280;7.236;2022-09-20T13:52:30;17.50;99.90
871;DHT22;422;51.280;7.236;2022-09-20T13:54:58;17.40;99.90
871;DHT22;422;51.280;7.236;2022-09-20T13:57:31;17.30;99.90
871;DHT22;422;51.280;7.236;2022-09-20T13:59:59;17.80;99.90
871;DHT22;422;51.280;7.236;2022-09-20T14:02:33;17.90;99.90
871;DHT22;422;51.280;7.236;2022-09-20T14:05:03;18.60;99.90
871;DHT22;422;51.280;7.236;2022-09-20T14:07:33;19.00;99.90
871;DHT22;422;51.280;7.236;2022-09-20T14:10:01;18.30;99.90
871;DHT22;422;51.280;7.236;2022-09-20T14:12:35;17.90;99.90
871;DHT22;422;51.280;7.236;2022-09-20T14:15:07;18.10;99.90
871;DHT22;422;51.280;7.236;2022-09-20T14:17:39;18.60;99.90
871;DHT22;422;51.280;7.236;2022-09-20T14:20:08;18.90;99.90
871;DHT22;422;51.280;7.236;2022-09-20T14:22:45;19.10;99.90
871;DHT22;422;51.280;7.236;2022-09-20T14:25:21;19.30;99.90
871;DHT22;422;51.280;7.236;2022-09-20T14:28:04;18.60;99.90
871;DHT22;422;51.280;7.236;2022-09-20T14:30:35;18.20;99.90
871;DHT22;422;51.280;7.236;2022-09-20T14:33:14;18.20;99.90
871;DHT22;422;51.280;7.236;2022-09-20T14:35:47;18.40;99.90
871;DHT22;422;51.280;7.236;2022-09-20T14:38:25;17.80;99.90
871;DHT22;422;51.280;7.236;2022-09-20T14:40:53;17.10;99.90
871;DHT22;422;51.280;7.236;2022-09-20T14:43:28;16.70;99.90
871;DHT22;422;51.280;7.236;2022-09-20T14:45:58;16.40;99.90
871;DHT22;422;51.280;7.236;2022-09-20T14:48:36;16.10;99.90
871;DHT22;422;51.280;7.236;2022-09-20T14:51:21;16.10;99.90
871;DHT22;422;51.280;7.236;2022-09-20T14:54:13;15.80;99.90
871;DHT22;422;51.280;7.236;2022-09-20T14:56:44;15.30;99.90
871;DHT22;422;51.280;7.236;2022-09-20T14:59:23;15.00;99.90
871;DHT22;422;51.280;7.236;2022-09-20T15:02:07;14.90;99.90
871;DHT22;422;51.280;7.236;2022-09-20T15:04:42;14.80;99.90
871;DHT22;422;51.280;7.236;2022-09-20T15:07:20;14.80;99.90
871;DHT22;422;51.280;7.236;2022-09-20T15:09:48;14.70;99.90
871;DHT22;422;51.280;7.236;2022-09-20T15:12:17;14.70;99.90
871;DHT22;422;51.280;7.236;2022-09-20T15:14:46;14.70;99.90
871;DHT22;422;51.280;7.236;2022-09-20T15:17:16;14.70;99.90
871;DHT22;422;51.280;7.236;2022-09-20T15:19:46;14.80;99.90
871;DHT22;422;51.280;7.236;2022-09-20T15:22:14;14.80;99.90
871;DHT22;422;51.280;7.236;2022-09-20T15:24:45;14.80;99.90
871;DHT22;422;51.280;7.236;2022-09-20T15:27:14;14.90;99.90
871;DHT22;422;51.280;7.236;2022-09-20T15:29:42;14.90;99.90
871;DHT22;422;51.280;7.236;2022-09-20T15:32:12;15.00;99.90
871;DHT22;422;51.280;7.236;2022-09-20T15:34:39;15.00;99.90
871;DHT22;422;51.280;7.236;2022-09-20T15:37:06;15.10;99.90
871;DHT22;422;51.280;7.236;2022-09-20T15:39:33;15.10;99.90
871;DHT22;422;51.280;7.236;2022-09-20T15:42:01;14.90;99.90
871;DHT22;422;51.280;7.236;2022-09-20T15:44:32;14.70;99.90
871;DHT22;422;51.280;7.236;2022-09-20T15:47:00;14.80;99.90
871;DHT22;422;51.280;7.236;2022-09-20T15:49:29;14.70;99.90
871;DHT22;422;51.280;7.236;2022-09-20T15:51:58;14.80;99.90
871;DHT22;422;51.280;7.236;2022-09-20T15:54:25;14.90;99.90
871;DHT22;422;51.280;7.236;2022-09-20T15:56:52;14.90;99.90
871;DHT22;422;51.280;7.236;2022-09-20T15:59:20;14.80;99.90
871;DHT22;422;51.280;7.236;2022-09-20T16:01:49;14.60;99.90
871;DHT22;422;51.280;7.236;2022-09-20T16:04:18;14.50;99.90
871;DHT22;422;51.280;7.236;2022-09-20T16:06:47;14.60;99.90
871;DHT22;422;51.280;7.236;2022-09-20T16:09:17;14.50;99.90
871;DHT22;422;51.280;7.236;2022-09-20T16:11:44;14.50;99.90
871;DHT22;422;51.280;7.236;2022-09-20T16:14:12;14.50;99.90
871;DHT22;422;51.280;7.236;2022-09-20T16:16:42;14.50;99.90
871;DHT22;422;51.280;7.236;2022-09-20T16:19:11;14.40;99.90
871;DHT22;422;51.280;7.236;2022-09-20T16:21:46;14.40;99.90
871;DHT22;422;51.280;7.236;2022-09-20T16:24:27;14.30;99.90
871;DHT22;422;51.280;7.236;2022-09-20T16:26:57;14.20;99.90
871;DHT22;422;51.280;7.236;2022-09-20T16:29:25;14.00;99.90
871;DHT22;422;51.280;7.236;2022-09-20T16:31:55;14.10;99.90
871;DHT22;422;51.280;7.236;2022-09-20T16:34:25;14.10;99.90
871;DHT22;422;51.280;7.236;2022-09-20T16:36:55;14.20;99.90
871;DHT22;422;51.280;7.236;2022-09-20T16:39:24;14.00;99.90
871;DHT22;422;51.280;7.236;2022-09-20T16:41:53;14.10;99.90
871;DHT22;422;51.280;7.236;2022-09-20T16:44:22;13.90;99.90
871;DHT22;422;51.280;7.236;2022-09-20T16:46:49;13.70;99.90
871;DHT22;422;51.280;7.236;2022-09-20T16:49:16;13.70;99.90
871;DHT22;422;51.280;7.236;2022-09-20T16:51:45;13.70;99.90
871;DHT22;422;51.280;7.236;2022-09-20T16:54:14;13.70;99.90
871;DHT22;422;51.280;7.236;2022-09-20T16:56:46;13.60;99.90
871;DHT22;422;51.280;7.236;2022-09-20T16:59:16;13.60;99.90
871;DHT22;422;51.280;7.236;2022-09-20T17:01:44;13.50;99.90
871;DHT22;422;51.280;7.236;2022-09-20T17:04:19;13.40;99.90
871;DHT22;422;51.280;7.236;2022-09-20T17:06:48;13.40;99.90
871;DHT22;422;51.280;7.236;2022-09-20T17:09:16;13.30;99.90
871;DHT22;422;51.280;7.236;2022-09-20T17:11:45;13.20;99.90
871;DHT22;422;51.280;7.236;2022-09-20T17:14:16;13.20;99.90
871;DHT22;422;51.280;7.236;2022-09-20T17:16:45;13.10;99.90
871;DHT22;422;51.280;7.236;2022-09-20T17:19:19;13.00;99.90
871;DHT22;422;51.280;7.236;2022-09-20T17:21:52;12.80;1.00
871;DHT22;422;51.280;7.236;2022-09-20T17:24:21;12.70;1.00
871;DHT22;422;51.280;7.236;2022-09-20T17:26:53;12.60;1.00
871;DHT22;422;51.280;7.236;2022-09-20T17:29:22;12.50;1.00
871;DHT22;422;51.280;7.236;2022-09-20T17:31:50;12.40;1.00
871;DHT22;422;51.280;7.236;2022-09-20T17:34:18;12.30;1.00
871;DHT22;422;51.280;7.236;2022-09-20T17:36:48;12.20;1.00
871;DHT22;422;51.280;7.236;2022-09-20T17:39:15;12.20;1.00
871;DHT22;422;51.280;7.236;2022-09-20T17:41:44;12.20;1.00
871;DHT22;422;51.280;7.236;2022-09-20T17:44:14;12.10;1.00
871;DHT22;422;51.280;7.236;2022-09-20T17:46:42;12.10;1.00
871;DHT22;422;51.280;7.236;2022-09-20T17:49:11;12.10;1.00
871;DHT22;422;51.280;7.236;2022-09-20T17:51:40;12.00;1.00
871;DHT22;422;51.280;7.236;2022-09-20T17:54:12;12.00;1.00
871;DHT22;422;51.280;7.236;2022-09-20T17:56:40;12.00;1.00
871;DHT22;422;51.280;7.236;2022-09-20T17:59:11;12.00;1.00
871;DHT22;422;51.280;7.236;2022-09-20T18:01:40;11.90;1.00
871;DHT22;422;51.280;7.236;2022-09-20T18:04:08;11.80;1.00
871;DHT22;422;51.280;7.236;2022-09-20T18:06:36;11.80;1.00
871;DHT22;422;51.280;7.236;2022-09-20T18:09:07;11.70;1.00
871;DHT22;422;51.280;7.236;2022-09-20T18:11:41;11.70;1.00
871;DHT22;422;51.280;7.236;2022-09-20T18:14:14;11.60;1.00
871;DHT22;422;51.280;7.236;2022-09-20T18:16:45;11.50;1.00